Time;durP1;ratioP1;P1;durP2;ratioP2;P2;SDS_P1;SDS_P2;PMS_P1;PMS_P2;Temp;Humidity;BMP_temperature;BMP_pressure;BME280_temperature;BME280_humidity;BME280_pressure;Samples;Min_cycle;Max_cycle;Signal;HPM_P1;HPM_P2
2022/10/19 00:04:53;;;;;;;29.83;17.70;;;14.40;99.90;;;;;;10405970;28;20588;-71
2022/10/19 00:09:54;;;;;;;30.93;17.83;;;14.50;99.90;;;;;;10401890;28;20235;-72
2022/10/19 00:14:54;;;;;;;31.07;17.27;;;14.50;99.90;;;;;;10393721;28;20336;-71
2022/10/19 00:19:55;;;;;;;45.23;18.57;;;14.60;99.90;;;;;;10400459;28;20644;-71
2022/10/19 00:24:56;;;;;;;36.93;17.87;;;14.60;99.90;;;;;;10396009;28;20286;-70
2022/10/19 00:29:57;;;;;;;43.30;18.40;;;14.70;99.90;;;;;;10401588;28;20242;-71
2022/10/19 00:34:57;;;;;;;50.87;19.43;;;14.70;99.90;;;;;;10389781;28;20235;-71
2022/10/19 00:39:58;;;;;;;52.60;20.00;;;14.70;99.90;;;;;;10402140;28;20230;-71
2022/10/19 00:45:25;;;;;;;63.10;21.27;;;14.70;99.90;;;;;;10396736;28;20970;-69
2022/10/19 00:50:26;;;;;;;65.17;21.40;;;14.70;99.90;;;;;;10432501;28;20330;-69
2022/10/19 00:55:27;;;;;;;53.97;21.13;;;14.70;99.90;;;;;;10422784;28;20311;-70
2022/10/19 01:00:28;;;;;;;50.83;20.63;;;14.70;99.90;;;;;;10392685;28;20259;-73
2022/10/19 01:05:29;;;;;;;45.27;21.63;;;14.70;99.90;;;;;;10393803;28;20643;-74
2022/10/19 01:10:51;;;;;;;39.33;20.50;;;14.70;99.90;;;;;;10433354;28;20235;-73
2022/10/19 01:16:24;;;;;;;41.03;19.80;;;14.70;99.90;;;;;;10401717;28;20854;-76
2022/10/19 01:21:30;;;;;;;30.30;17.67;;;14.80;99.90;;;;;;10401439;28;20223;-75
2022/10/19 01:27:18;;;;;;;25.63;16.27;;;14.80;99.90;;;;;;10405714;28;20334;-76
2022/10/19 01:32:41;;;;;;;27.83;16.83;;;14.80;99.90;;;;;;10378359;28;20236;-77
2022/10/19 01:38:06;;;;;;;30.43;17.40;;;14.90;99.90;;;;;;10397165;28;20297;-76
2022/10/19 01:43:20;;;;;;;26.43;15.83;;;14.90;99.90;;;;;;10409596;28;20227;-77
2022/10/19 01:48:25;;;;;;;26.70;16.93;;;15.00;99.90;;;;;;10404144;28;20295;-69
2022/10/19 01:53:31;;;;;;;25.83;15.63;;;15.00;99.90;;;;;;10406657;28;20235;-68
2022/10/19 01:58:36;;;;;;;30.43;15.97;;;15.00;99.90;;;;;;10402412;28;20228;-68
2022/10/19 02:03:39;;;;;;;21.63;15.83;;;15.00;99.90;;;;;;10402155;28;20907;-69
2022/10/19 02:08:47;;;;;;;21.87;13.83;;;15.00;99.90;;;;;;10402380;28;20270;-69
2022/10/19 02:14:03;;;;;;;27.37;14.27;;;15.00;99.90;;;;;;10401603;28;20224;-69
2022/10/19 02:19:07;;;;;;;26.00;14.53;;;14.90;99.90;;;;;;10404034;28;20220;-69
2022/10/19 02:24:08;;;;;;;28.57;16.37;;;14.70;99.90;;;;;;10408784;28;20598;-69
2022/10/19 02:29:11;;;;;;;27.10;15.27;;;14.70;99.90;;;;;;10404598;28;20319;-69
2022/10/19 02:34:12;;;;;;;22.37;15.83;;;14.60;99.90;;;;;;10396749;28;20578;-68
2022/10/19 02:39:13;;;;;;;22.70;16.67;;;14.50;99.90;;;;;;10398944;28;20277;-67
2022/10/19 02:44:28;;;;;;;32.37;16.33;;;14.50;99.90;;;;;;10404245;28;20751;-67
2022/10/19 02:49:29;;;;;;;25.77;16.83;;;14.50;99.90;;;;;;10398934;28;20747;-71
2022/10/19 02:54:30;;;;;;;30.77;17.03;;;14.40;99.90;;;;;;10397293;28;20737;-76
2022/10/19 02:59:30;;;;;;;27.10;16.83;;;14.40;99.90;;;;;;10409223;28;20227;-76
2022/10/19 03:04:34;;;;;;;29.30;17.03;;;14.40;99.90;;;;;;10409666;28;20295;-76
2022/10/19 03:09:34;;;;;;;34.50;17.70;;;14.40;99.90;;;;;;10397323;28;20275;-77
2022/10/19 03:14:35;;;;;;;31.33;16.53;;;14.40;99.90;;;;;;10402951;28;20257;-76
2022/10/19 03:19:36;;;;;;;34.67;17.40;;;14.40;99.90;;;;;;10404944;28;20243;-76
2022/10/19 03:24:36;;;;;;;27.17;16.47;;;14.40;99.90;;;;;;10403764;28;20220;-76
2022/10/19 03:29:37;;;;;;;28.47;17.03;;;14.40;99.90;;;;;;10398567;28;20216;-76
2022/10/19 03:34:38;;;;;;;27.97;16.47;;;14.40;99.90;;;;;;10401611;28;20215;-77
2022/10/19 03:39:38;;;;;;;28.17;16.33;;;14.40;99.90;;;;;;10401471;28;20226;-77
2022/10/19 03:44:39;;;;;;;25.23;15.50;;;14.30;99.90;;;;;;10402808;28;20232;-75
2022/10/19 03:49:39;;;;;;;22.30;16.47;;;14.40;99.90;;;;;;10408552;28;20358;-75
2022/10/19 03:54:40;;;;;;;32.03;17.00;;;14.30;99.90;;;;;;10407454;28;20247;-75
2022/10/19 03:59:41;;;;;;;26.13;16.93;;;14.30;99.90;;;;;;10392280;28;20223;-76
2022/10/19 04:04:41;;;;;;;30.43;17.80;;;14.30;99.90;;;;;;10407317;28;20334;-77
2022/10/19 04:09:42;;;;;;;30.63;17.60;;;14.30;99.90;;;;;;10395628;28;20231;-76
2022/10/19 04:14:42;;;;;;;32.10;16.50;;;14.30;99.90;;;;;;10405045;28;20253;-74
2022/10/19 04:19:43;;;;;;;25.10;15.30;;;14.30;99.90;;;;;;10404442;28;20295;-77
2022/10/19 04:24:43;;;;;;;33.30;16.73;;;14.30;99.90;;;;;;10399268;28;20258;-77
2022/10/19 04:29:44;;;;;;;26.40;17.10;;;14.30;99.90;;;;;;10394712;28;20634;-76
2022/10/19 04:34:44;;;;;;;24.90;15.27;;;14.30;99.90;;;;;;10405899;28;20944;-76
2022/10/19 04:39:48;;;;;;;30.93;16.60;;;14.20;99.90;;;;;;10398033;28;20222;-74
2022/10/19 04:44:48;;;;;;;30.10;16.07;;;14.30;99.90;;;;;;10406660;28;20227;-74
2022/10/19 04:49:49;;;;;;;27.23;15.90;;;14.20;99.90;;;;;;10404804;28;20692;-74
2022/10/19 04:54:49;;;;;;;27.27;15.37;;;14.20;99.90;;;;;;10414066;28;20215;-75
2022/10/19 04:59:50;;;;;;;25.57;14.63;;;14.20;99.90;;;;;;10405705;28;20715;-74
2022/10/19 05:04:50;;;;;;;25.77;15.33;;;14.20;99.90;;;;;;10411617;28;20227;-73
2022/10/19 05:09:51;;;;;;;25.23;15.50;;;14.10;99.90;;;;;;10404868;28;20339;-73
2022/10/19 05:14:52;;;;;;;26.53;14.57;;;14.10;99.90;;;;;;10439645;28;21003;-75
2022/10/19 05:19:52;;;;;;;26.10;14.70;;;14.00;99.90;;;;;;10442864;28;20233;-75
2022/10/19 05:24:53;;;;;;;28.83;15.17;;;14.00;99.90;;;;;;10448346;28;20226;-74
2022/10/19 05:29:53;;;;;;;26.90;16.20;;;14.10;99.90;;;;;;10443139;28;20446;-75
2022/10/19 05:34:54;;;;;;;29.77;15.10;;;14.00;99.90;;;;;;10439862;28;20208;-76
2022/10/19 05:39:54;;;;;;;23.83;14.37;;;14.00;99.90;;;;;;10411736;28;20900;-73
2022/10/19 05:44:55;;;;;;;24.17;14.07;;;14.00;99.90;;;;;;10399799;28;20216;-75
2022/10/19 05:49:56;;;;;;;23.20;13.80;;;14.10;99.90;;;;;;10409450;28;20255;-74
2022/10/19 05:54:57;;;;;;;24.43;13.73;;;14.00;99.90;;;;;;10403419;28;20219;-74
2022/10/19 05:59:57;;;;;;;20.17;13.80;;;14.00;99.90;;;;;;10396571;28;20231;-72
2022/10/19 06:04:58;;;;;;;23.93;13.57;;;13.90;99.90;;;;;;10407241;28;20249;-73
2022/10/19 06:09:58;;;;;;;24.40;12.90;;;13.80;99.90;;;;;;10429747;28;20915;-74
2022/10/19 06:14:59;;;;;;;19.50;12.90;;;13.80;99.90;;;;;;10404793;28;20223;-69
2022/10/19 06:20:00;;;;;;;27.80;13.77;;;13.80;99.90;;;;;;10408343;28;20889;-70
2022/10/19 06:25:00;;;;;;;36.13;13.70;;;13.70;99.90;;;;;;10442272;28;20222;-70
2022/10/19 06:30:01;;;;;;;19.70;11.97;;;13.80;99.90;;;;;;10442292;28;20249;-69
2022/10/19 06:35:02;;;;;;;24.30;12.77;;;13.90;99.90;;;;;;10449293;28;20313;-70
2022/10/19 06:40:03;;;;;;;20.50;11.93;;;13.90;99.90;;;;;;10451323;28;20223;-69
2022/10/19 06:45:10;;;;;;;20.00;12.70;;;13.80;99.90;;;;;;10447819;28;20215;-70
2022/10/19 06:50:10;;;;;;;27.97;12.97;;;13.80;99.90;;;;;;10442822;28;20226;-70
2022/10/19 06:55:11;;;;;;;20.33;11.63;;;13.80;99.90;;;;;;10447904;28;20195;-69
2022/10/19 07:00:12;;;;;;;18.43;12.07;;;13.80;99.90;;;;;;10449466;28;20191;-69
2022/10/19 07:05:13;;;;;;;18.23;12.37;;;13.80;99.90;;;;;;10447834;28;20213;-69
2022/10/19 07:10:13;;;;;;;18.73;11.63;;;13.80;99.90;;;;;;10447142;28;20666;-70
2022/10/19 07:15:14;;;;;;;19.87;12.00;;;13.80;99.90;;;;;;10447646;28;20179;-70
2022/10/19 07:20:15;;;;;;;23.13;12.40;;;13.90;99.90;;;;;;10447619;28;20202;-70
2022/10/19 07:25:15;;;;;;;17.57;11.10;;;13.90;99.90;;;;;;10446657;28;20194;-69
2022/10/19 07:30:16;;;;;;;23.80;11.60;;;14.00;99.90;;;;;;10448545;28;20298;-69
2022/10/19 07:35:17;;;;;;;20.20;12.90;;;14.00;99.90;;;;;;10445856;28;20282;-69
2022/10/19 07:40:17;;;;;;;34.57;14.73;;;14.00;99.90;;;;;;10447658;28;20301;-70
2022/10/19 07:45:18;;;;;;;26.83;13.23;;;13.90;99.90;;;;;;10438197;28;20263;-70
2022/10/19 07:50:19;;;;;;;30.30;13.70;;;13.90;99.90;;;;;;10447347;28;20227;-70
2022/10/19 07:55:19;;;;;;;26.07;12.57;;;14.00;99.90;;;;;;10447304;28;20277;-70
2022/10/19 08:00:20;;;;;;;25.23;12.57;;;14.00;99.90;;;;;;10446971;28;20198;-70
2022/10/19 08:05:21;;;;;;;23.80;12.33;;;14.00;99.90;;;;;;10444461;28;20206;-70
2022/10/19 08:10:21;;;;;;;19.53;12.27;;;14.00;99.90;;;;;;10443845;28;20211;-71
2022/10/19 08:15:22;;;;;;;23.67;12.07;;;14.10;99.90;;;;;;10438142;28;20278;-71
2022/10/19 08:20:23;;;;;;;25.23;13.27;;;14.00;99.90;;;;;;10433794;28;20651;-72
2022/10/19 08:25:24;;;;;;;27.70;13.63;;;14.00;99.90;;;;;;10429931;28;20200;-72
2022/10/19 08:30:24;;;;;;;24.90;13.50;;;14.20;99.90;;;;;;10434681;28;20350;-70
2022/10/19 08:35:25;;;;;;;21.67;11.87;;;14.30;99.90;;;;;;10433685;28;20224;-70
2022/10/19 08:40:28;;;;;;;22.57;12.63;;;14.40;99.90;;;;;;10445972;28;20219;-70
2022/10/19 08:45:40;;;;;;;19.47;12.37;;;14.60;99.90;;;;;;10444746;28;20227;-70
2022/10/19 08:50:43;;;;;;;19.27;12.20;;;14.60;99.90;;;;;;10445728;28;20235;-70
2022/10/19 08:55:48;;;;;;;18.60;12.90;;;14.70;99.90;;;;;;10444646;28;20712;-71
2022/10/19 09:01:01;;;;;;;15.97;12.77;;;14.90;99.90;;;;;;10445071;28;20223;-72
2022/10/19 09:06:22;;;;;;;19.97;11.87;;;14.90;99.90;;;;;;10438747;28;20238;-69
2022/10/19 09:11:40;;;;;;;17.53;11.57;;;15.00;99.90;;;;;;10444433;28;20246;-72
2022/10/19 09:16:41;;;;;;;19.87;11.60;;;15.10;99.90;;;;;;10445513;28;20289;-72
2022/10/19 09:21:50;;;;;;;21.40;11.33;;;15.00;99.90;;;;;;10445644;28;20730;-72
2022/10/19 09:26:54;;;;;;;21.73;11.40;;;15.10;99.90;;;;;;10444897;28;20231;-72
2022/10/19 09:31:59;;;;;;;15.80;10.83;;;15.20;99.90;;;;;;10445734;28;20263;-71
2022/10/19 09:37:00;;;;;;;19.13;10.97;;;15.40;99.90;;;;;;10448670;28;20714;-72
2022/10/19 09:42:06;;;;;;;18.30;11.73;;;15.40;99.90;;;;;;10452385;28;20219;-73
2022/10/19 09:47:35;;;;;;;18.97;11.13;;;15.50;99.90;;;;;;10450837;28;20814;-71
2022/10/19 09:52:40;;;;;;;17.63;10.73;;;15.60;99.90;;;;;;10450057;28;20222;-72
2022/10/19 09:57:49;;;;;;;18.40;10.17;;;15.60;99.90;;;;;;10451265;28;20265;-72
2022/10/19 10:02:54;;;;;;;24.57;10.73;;;15.80;99.90;;;;;;10443973;28;20281;-71
2022/10/19 10:07:55;;;;;;;18.77;10.87;;;15.80;99.90;;;;;;10440443;28;20235;-71
2022/10/19 10:12:58;;;;;;;14.20;9.83;;;15.50;99.90;;;;;;10425116;28;20286;-71
2022/10/19 10:17:59;;;;;;;16.70;10.63;;;15.50;99.90;;;;;;10426779;28;20230;-71
2022/10/19 10:23:05;;;;;;;17.47;9.00;;;15.50;99.90;;;;;;10427764;28;20234;-71
2022/10/19 10:28:20;;;;;;;14.47;9.20;;;15.70;99.90;;;;;;10442630;28;20223;-71
2022/10/19 10:33:25;;;;;;;14.50;8.60;;;15.70;99.90;;;;;;10440375;28;20277;-71
2022/10/19 10:38:30;;;;;;;13.17;9.30;;;15.80;99.90;;;;;;10441952;28;20325;-71
2022/10/19 10:43:33;;;;;;;12.10;8.70;;;15.80;99.90;;;;;;10434572;28;20582;-70
2022/10/19 10:48:41;;;;;;;14.63;9.00;;;15.90;99.90;;;;;;10437592;28;20269;-72
2022/10/19 10:53:42;;;;;;;14.57;8.60;;;15.90;99.90;;;;;;10433376;28;20713;-71
2022/10/19 10:59:14;;;;;;;13.20;8.73;;;16.00;99.90;;;;;;10435769;28;20227;-71
2022/10/19 11:04:21;;;;;;;15.43;8.93;;;16.10;99.90;;;;;;10413344;28;20699;-72
2022/10/19 11:09:42;;;;;;;14.97;8.00;;;16.00;99.90;;;;;;10418461;28;20227;-72
2022/10/19 11:14:48;;;;;;;13.80;7.47;;;16.20;99.90;;;;;;10421965;28;20212;-72
2022/10/19 11:19:50;;;;;;;12.40;7.63;;;16.30;99.90;;;;;;10423815;28;20574;-71
2022/10/19 11:25:05;;;;;;;12.37;7.43;;;16.50;99.90;;;;;;10424709;28;21528;-72
2022/10/19 11:30:20;;;;;;;13.10;7.03;;;16.50;99.90;;;;;;10434990;28;20318;-72
2022/10/19 11:35:40;;;;;;;12.47;6.63;;;16.50;99.90;;;;;;10419899;28;20636;-72
2022/10/19 11:41:06;;;;;;;13.80;6.77;;;16.40;99.90;;;;;;10409609;28;20204;-71
2022/10/19 11:46:22;;;;;;;11.03;6.97;;;16.40;99.90;;;;;;10428377;28;20220;-72
2022/10/19 11:51:48;;;;;;;15.83;6.57;;;16.40;99.90;;;;;;10410867;28;20258;-72
2022/10/19 11:56:58;;;;;;;9.97;6.63;;;16.50;99.90;;;;;;10430113;28;20772;-72
2022/10/19 12:02:11;;;;;;;13.43;6.77;;;16.30;99.90;;;;;;10402958;28;20224;-72
2022/10/19 12:07:33;;;;;;;15.13;6.57;;;16.20;99.90;;;;;;10405683;28;20228;-72
2022/10/19 12:12:41;;;;;;;8.33;6.20;;;16.10;99.90;;;;;;10424804;28;20229;-72
2022/10/19 12:17:46;;;;;;;9.13;6.00;;;16.00;99.90;;;;;;10445454;28;20219;-72
2022/10/19 12:22:48;;;;;;;11.23;5.80;;;16.00;99.90;;;;;;10424071;28;20264;-72
2022/10/19 12:27:50;;;;;;;6.73;6.03;;;16.00;99.90;;;;;;10404539;28;20289;-72
2022/10/19 12:33:22;;;;;;;9.17;5.67;;;16.00;99.90;;;;;;10405458;28;20615;-72
2022/10/19 12:39:01;;;;;;;10.70;6.20;;;16.10;99.90;;;;;;10425694;28;20222;-72
2022/10/19 12:44:31;;;;;;;11.03;5.83;;;16.00;99.90;;;;;;10421302;28;20643;-72
2022/10/19 12:49:31;;;;;;;12.60;6.27;;;16.00;99.90;;;;;;10440526;28;20219;-73
2022/10/19 12:54:35;;;;;;;13.03;6.63;;;15.90;99.90;;;;;;10408172;28;20266;-72
2022/10/19 12:59:36;;;;;;;8.10;5.53;;;15.90;99.90;;;;;;10443184;28;20215;-72
2022/10/19 13:04:37;;;;;;;11.67;6.00;;;15.80;99.90;;;;;;10445138;28;20267;-72
2022/10/19 13:09:44;;;;;;;11.50;6.60;;;15.90;99.90;;;;;;10447209;28;20340;-73
2022/10/19 13:14:54;;;;;;;8.53;6.87;;;16.00;99.90;;;;;;10453279;28;20216;-72
2022/10/19 13:20:15;;;;;;;7.53;6.27;;;16.00;99.90;;;;;;10453506;28;20305;-72
2022/10/19 13:25:15;;;;;;;7.30;6.60;;;16.00;99.90;;;;;;10446603;28;20260;-72
2022/10/19 13:30:37;;;;;;;6.90;6.20;;;15.80;99.90;;;;;;10450742;28;20207;-72
2022/10/19 13:35:38;;;;;;;9.93;6.20;;;15.70;99.90;;;;;;10451834;28;20215;-72
2022/10/19 13:40:47;;;;;;;7.70;6.73;;;15.80;99.90;;;;;;10452836;28;20215;-71
2022/10/19 13:46:01;;;;;;;8.83;6.87;;;15.70;99.90;;;;;;10447620;28;20223;-71
2022/10/19 13:51:19;;;;;;;7.10;6.37;;;15.60;99.90;;;;;;10452637;28;20245;-73
2022/10/19 13:56:40;;;;;;;9.03;6.47;;;15.60;99.90;;;;;;10450416;28;20218;-71
2022/10/19 14:02:18;;;;;;;7.80;6.67;;;15.80;99.90;;;;;;10450352;28;20272;-72
2022/10/19 14:07:31;;;;;;;9.50;6.70;;;15.90;99.90;;;;;;10445156;28;20621;-71
2022/10/19 14:12:35;;;;;;;8.87;6.63;;;15.90;99.90;;;;;;10450348;28;20706;-72
2022/10/19 14:17:41;;;;;;;6.33;5.73;;;15.80;99.90;;;;;;10439744;28;20299;-73
2022/10/19 14:22:42;;;;;;;7.17;6.10;;;15.60;99.90;;;;;;10430907;28;20285;-74
2022/10/19 14:27:45;;;;;;;10.13;5.90;;;15.50;99.90;;;;;;10428710;28;20220;-73
2022/10/19 14:32:46;;;;;;;7.70;5.87;;;15.30;99.90;;;;;;10432073;28;20250;-73
2022/10/19 14:37:47;;;;;;;6.13;5.53;;;15.30;99.90;;;;;;10435541;28;20288;-73
2022/10/19 14:42:48;;;;;;;11.27;5.93;;;15.20;99.90;;;;;;10438599;28;20248;-74
2022/10/19 14:47:51;;;;;;;8.23;6.20;;;15.30;99.90;;;;;;10418844;28;20628;-74
2022/10/19 14:53:01;;;;;;;8.80;6.00;;;15.20;99.90;;;;;;10420487;28;20234;-74
2022/10/19 14:58:11;;;;;;;7.03;5.23;;;15.20;99.90;;;;;;10429122;28;20227;-74
2022/10/19 15:03:21;;;;;;;8.33;6.00;;;15.20;99.90;;;;;;10423805;28;20302;-75
2022/10/19 15:08:42;;;;;;;8.27;6.27;;;15.30;99.90;;;;;;10429172;28;20224;-74
2022/10/19 15:13:43;;;;;;;10.77;6.37;;;15.20;99.90;;;;;;10423590;28;20238;-75
2022/10/19 15:18:43;;;;;;;7.17;6.43;;;15.10;99.90;;;;;;10422447;28;20648;-74
2022/10/19 15:23:47;;;;;;;8.57;6.47;;;15.00;99.90;;;;;;10430757;28;20238;-74
2022/10/19 15:28:48;;;;;;;6.97;6.27;;;14.90;99.90;;;;;;10428801;28;20844;-75
2022/10/19 15:33:54;;;;;;;8.10;6.43;;;14.80;99.90;;;;;;10415563;28;20245;-73
2022/10/19 15:39:05;;;;;;;9.50;8.00;;;14.80;99.90;;;;;;10431586;28;20224;-74
2022/10/19 15:44:38;;;;;;;8.53;6.93;;;14.90;99.90;;;;;;10422493;28;20238;-74
2022/10/19 15:49:43;;;;;;;12.23;7.43;;;14.90;99.90;;;;;;10431210;28;20223;-73
2022/10/19 15:54:49;;;;;;;11.83;7.50;;;14.90;99.90;;;;;;10422142;28;20211;-73
2022/10/19 15:59:49;;;;;;;9.63;7.80;;;14.90;99.90;;;;;;10421162;28;20272;-74
2022/10/19 16:04:52;;;;;;;7.90;6.87;;;14.80;99.90;;;;;;10415624;28;20276;-72
2022/10/19 16:09:53;;;;;;;8.57;7.57;;;14.80;99.90;;;;;;10419479;28;20242;-73
2022/10/19 16:14:54;;;;;;;8.97;7.13;;;14.70;99.90;;;;;;10423498;28;20227;-71
2022/10/19 16:19:55;;;;;;;7.17;6.47;;;14.70;99.90;;;;;;10418212;28;20223;-72
2022/10/19 16:24:55;;;;;;;6.83;6.13;;;14.60;99.90;;;;;;10420333;28;20223;-70
2022/10/19 16:29:57;;;;;;;7.63;6.90;;;14.50;99.90;;;;;;10429518;28;20321;-71
2022/10/19 16:34:57;;;;;;;8.40;6.57;;;14.50;99.90;;;;;;10430861;28;20273;-71
2022/10/19 16:39:58;;;;;;;8.57;6.97;;;14.40;99.90;;;;;;10425215;28;20683;-71
2022/10/19 16:44:59;;;;;;;17.27;7.23;;;14.40;99.90;;;;;;10418669;28;20310;-73
2022/10/19 16:50:01;;;;;;;9.17;7.50;;;14.40;99.90;;;;;;10433037;28;20273;-73
2022/10/19 16:55:02;;;;;;;12.83;8.53;;;14.30;99.90;;;;;;10427022;28;20250;-73
2022/10/19 17:00:05;;;;;;;10.50;8.77;;;14.40;99.90;;;;;;10428795;28;20794;-74
2022/10/19 17:05:06;;;;;;;10.00;8.73;;;14.30;99.90;;;;;;10422893;28;20237;-75
2022/10/19 17:10:07;;;;;;;10.00;8.00;;;14.30;99.90;;;;;;10438953;28;20214;-74
2022/10/19 17:15:09;;;;;;;9.80;8.80;;;14.30;99.90;;;;;;10420925;28;20681;-74
2022/10/19 17:20:10;;;;;;;12.10;9.90;;;14.20;99.90;;;;;;10434677;28;20217;-75
2022/10/19 17:25:11;;;;;;;12.37;10.37;;;14.20;99.90;;;;;;10441652;28;20608;-77
2022/10/19 17:30:11;;;;;;;12.63;10.63;;;14.20;99.90;;;;;;10435553;28;20206;-75
2022/10/19 17:35:12;;;;;;;12.47;11.03;;;14.10;99.90;;;;;;10452680;28;20811;-75
2022/10/19 17:40:12;;;;;;;10.90;9.80;;;14.00;99.90;;;;;;10437908;28;20677;-76
2022/10/19 17:45:13;;;;;;;13.23;10.77;;;13.90;99.90;;;;;;10444365;28;20651;-75
2022/10/19 17:50:14;;;;;;;12.73;10.23;;;13.90;99.90;;;;;;10440373;28;20213;-75
2022/10/19 17:55:14;;;;;;;14.23;11.13;;;13.80;99.90;;;;;;10439485;28;20191;-75
2022/10/19 18:00:15;;;;;;;15.20;11.17;;;13.80;99.90;;;;;;10450765;28;20191;-73
2022/10/19 18:05:16;;;;;;;13.10;11.30;;;13.70;99.90;;;;;;10434216;28;20206;-74
2022/10/19 18:10:17;;;;;;;14.87;11.27;;;13.70;99.90;;;;;;10438107;28;20220;-74
2022/10/19 18:15:17;;;;;;;13.87;10.53;;;13.60;99.90;;;;;;10441428;28;20183;-74
2022/10/19 18:20:18;;;;;;;13.93;11.53;;;13.50;99.90;;;;;;10445061;28;20192;-74
2022/10/19 18:25:19;;;;;;;13.53;11.77;;;13.40;99.90;;;;;;10428078;28;20196;-74
2022/10/19 18:30:19;;;;;;;13.33;11.93;;;13.40;99.90;;;;;;10448477;28;20211;-74
2022/10/19 18:35:20;;;;;;;14.00;10.67;;;13.40;99.90;;;;;;10440271;28;20191;-74
2022/10/19 18:40:20;;;;;;;13.30;10.70;;;13.40;99.90;;;;;;10443955;28;20199;-74
2022/10/19 18:45:21;;;;;;;12.83;10.77;;;13.40;99.90;;;;;;10435456;28;20193;-74
2022/10/19 18:50:22;;;;;;;13.90;11.17;;;13.30;99.90;;;;;;10443791;28;20212;-75
2022/10/19 18:55:22;;;;;;;14.87;11.50;;;13.20;99.90;;;;;;10436321;28;20189;-76
2022/10/19 19:00:23;;;;;;;13.70;10.97;;;13.30;99.90;;;;;;10427861;28;20203;-74
2022/10/19 19:05:23;;;;;;;15.50;10.97;;;13.50;99.90;;;;;;10435452;28;20285;-74
2022/10/19 19:10:27;;;;;;;13.67;10.97;;;13.50;99.90;;;;;;10443691;28;20234;-74
2022/10/19 19:15:28;;;;;;;13.20;11.53;;;13.50;99.90;;;;;;10435442;28;20277;-73
2022/10/19 19:20:28;;;;;;;13.43;11.57;;;13.50;99.90;;;;;;10449621;28;21096;-75
2022/10/19 19:25:29;;;;;;;13.67;12.00;;;13.40;99.90;;;;;;10417017;28;20230;-74
2022/10/19 19:30:30;;;;;;;14.10;12.13;;;13.40;99.90;;;;;;10433146;28;20261;-74
2022/10/19 19:35:30;;;;;;;14.80;12.93;;;13.30;99.90;;;;;;10448505;28;20230;-74
2022/10/19 19:40:31;;;;;;;14.13;12.60;;;13.30;99.90;;;;;;10442840;28;20277;-74
2022/10/19 19:45:31;;;;;;;13.40;12.00;;;13.20;99.90;;;;;;10438796;28;20242;-74
2022/10/19 19:50:33;;;;;;;19.73;12.73;;;13.10;99.90;;;;;;10437590;28;20587;-75
2022/10/19 19:55:34;;;;;;;14.83;12.00;;;13.00;99.90;;;;;;10439571;28;20227;-72
2022/10/19 20:00:38;;;;;;;18.93;12.53;;;12.80;99.90;;;;;;10427404;28;20227;-78
2022/10/19 20:05:40;;;;;;;16.73;12.10;;;12.70;99.90;;;;;;10424621;28;20259;-75
2022/10/19 20:10:41;;;;;;;16.13;10.97;;;12.60;99.90;;;;;;10433445;28;20734;-75
2022/10/19 20:15:42;;;;;;;12.90;10.50;;;12.50;99.90;;;;;;10435787;28;20228;-75
2022/10/19 20:20:42;;;;;;;15.97;10.57;;;12.40;99.90;;;;;;10438547;28;20215;-74
2022/10/19 20:25:43;;;;;;;14.13;10.30;;;12.30;99.90;;;;;;10439253;28;20222;-73
2022/10/19 20:30:44;;;;;;;11.50;10.00;;;12.20;99.90;;;;;;10427657;28;20322;-75
2022/10/19 20:35:44;;;;;;;16.03;10.80;;;12.10;99.90;;;;;;10436318;28;20257;-73
2022/10/19 20:40:45;;;;;;;12.40;11.23;;;12.00;99.90;;;;;;10433132;28;20231;-73
2022/10/19 20:45:45;;;;;;;11.63;10.23;;;11.90;99.90;;;;;;10435551;28;20314;-75
2022/10/19 20:50:46;;;;;;;13.53;11.07;;;11.80;99.90;;;;;;10435024;28;20714;-73
2022/10/19 20:55:46;;;;;;;13.90;12.00;;;11.70;99.90;;;;;;10432089;28;20908;-75
2022/10/19 21:00:50;;;;;;;15.70;12.00;;;11.60;99.90;;;;;;10432548;28;20227;-74
2022/10/19 21:05:51;;;;;;;16.33;12.77;;;11.60;99.90;;;;;;10430935;28;20227;-74
2022/10/19 21:10:51;;;;;;;19.30;13.03;;;11.50;99.90;;;;;;10438047;28;20231;-76
2022/10/19 21:15:52;;;;;;;16.73;12.40;;;11.50;99.90;;;;;;10427136;28;20314;-75
2022/10/19 21:20:52;;;;;;;18.03;14.47;;;11.40;99.90;;;;;;10434751;28;20322;-76
2022/10/19 21:25:54;;;;;;;16.50;13.60;;;11.40;99.90;;;;;;10438668;28;20239;-76
2022/10/19 21:30:54;;;;;;;16.50;13.23;;;11.30;99.90;;;;;;10424878;28;20266;-75
2022/10/19 21:35:59;;;;;;;16.87;12.73;;;11.20;99.90;;;;;;10445491;28;20319;-74
2022/10/19 21:41:03;;;;;;;16.50;12.43;;;11.10;99.90;;;;;;10445943;28;20832;-75
2022/10/19 21:46:07;;;;;;;16.23;12.87;;;11.00;99.90;;;;;;10438296;28;20230;-76
2022/10/19 21:51:29;;;;;;;15.90;13.43;;;11.00;99.90;;;;;;10443706;28;20230;-75
2022/10/19 21:56:30;;;;;;;16.90;14.47;;;10.90;99.90;;;;;;10436389;28;20224;-74
2022/10/19 22:01:32;;;;;;;21.27;14.37;;;10.90;99.90;;;;;;10444925;28;20280;-73
2022/10/19 22:06:35;;;;;;;21.23;13.40;;;10.90;99.90;;;;;;10433797;28;20315;-74
2022/10/19 22:11:35;;;;;;;24.77;13.50;;;10.90;99.90;;;;;;10440499;28;20231;-73
2022/10/19 22:16:36;;;;;;;17.00;13.33;;;10.80;99.90;;;;;;10436039;28;20539;-75
2022/10/19 22:21:36;;;;;;;21.13;13.83;;;10.80;99.90;;;;;;10439215;28;20296;-75
2022/10/19 22:26:40;;;;;;;16.80;13.83;;;10.70;99.90;;;;;;10443262;28;20259;-75
2022/10/19 22:31:41;;;;;;;22.37;14.17;;;10.70;99.90;;;;;;10432147;28;20243;-76
2022/10/19 22:36:42;;;;;;;18.97;13.23;;;10.70;99.90;;;;;;10446324;28;20725;-74
2022/10/19 22:41:43;;;;;;;19.03;12.40;;;10.60;99.90;;;;;;10435661;28;20739;-76
2022/10/19 22:46:44;;;;;;;18.20;13.57;;;10.60;99.90;;;;;;10433686;28;20248;-75
2022/10/19 22:51:44;;;;;;;15.27;13.33;;;10.50;99.90;;;;;;10429779;28;20231;-74
2022/10/19 22:56:45;;;;;;;18.23;13.07;;;10.50;99.90;;;;;;10439404;28;20239;-74
2022/10/19 23:01:45;;;;;;;15.47;12.03;;;10.50;99.90;;;;;;10435204;28;20907;-75
2022/10/19 23:06:46;;;;;;;21.60;12.67;;;10.50;99.90;;;;;;10440709;28;20229;-74
2022/10/19 23:11:47;;;;;;;23.73;12.53;;;10.40;99.90;;;;;;10435922;28;20242;-74
2022/10/19 23:16:48;;;;;;;22.40;12.43;;;10.40;99.90;;;;;;10432923;28;20238;-75
2022/10/19 23:21:48;;;;;;;17.43;11.77;;;10.30;99.90;;;;;;10439674;28;20234;-74
2022/10/19 23:26:49;;;;;;;15.47;11.67;;;10.30;99.90;;;;;;10434779;28;20229;-74
2022/10/19 23:31:50;;;;;;;15.23;11.17;;;10.30;99.90;;;;;;10443231;28;20935;-74
2022/10/19 23:36:50;;;;;;;21.03;11.10;;;10.20;99.90;;;;;;10435053;28;20230;-75
2022/10/19 23:41:51;;;;;;;18.13;11.70;;;10.10;99.90;;;;;;10430782;28;20223;-75
2022/10/19 23:46:51;;;;;;;15.63;11.63;;;10.10;99.90;;;;;;10439969;28;20630;-76
2022/10/19 23:51:52;;;;;;;14.90;10.83;;;10.00;99.90;;;;;;10430353;28;20235;-75
2022/10/19 23:56:53;;;;;;;18.67;12.37;;;9.90;99.90;;;;;;10442843;28;20655;-77
